Aérodrome :
LOGIN :

S'inscrire | Disclaimer

   EN    FR    IT 

 










Légende :    VFR   VFR Marginal   IFR   IFR Intensif   IFR Très Intensif
Visi : 
Plafond : 
>= 8 km
>= 3000ft
5 à 8 km
1000 à 3000 ft
1500m à 5 km
500 à 1000 ft
800 à 1500m
200 à 500 ft
< 800m
< 200 ft
Symboles :   Orages  Brouillard  Fortes neiges  Fortes précipitations  Vent > 20 kt
SIGMETs :   Divers  Orages  Givrage  Turbulence  Onde Orograph.  Cendres Volcan.






- Altitude de l'aérodrome : 56 ft
- Code IATA : ILY


EGPI - Islay

DERNIER METAR :
  • 221750Z 18011KT 150V210 9999 BKN039 11/08 Q1014

METARs EXPIRÉS :
  • 221720Z 18010KT 150V210 9999 FEW021 SCT030 BKN038 11/08 Q1014
  • 221650Z 17008KT 140V210 9999 FEW021 BKN030 11/08 Q1014
  • 221620Z 17011KT 150V210 9999 BKN024 11/08 Q1014
  • 221550Z AUTO 18011KT 150V210 9999 FEW018/// OVC028/// 11/09 Q1014

Prévision TAF périmée.



MET'MAP, la Météo Aéronautique d'un coup d'oeil ! - Copyright ORBIFLY Décembre 2007 - Disclaimer

ORBIFLY MET'MAP TEAM :

Programmation & Développement : Alexandra Zaïnal
Conception & Développement : Baudouin d'Aumeries
Co-Programmation & Développement : Marc-Olivier Méhu
Soutien technique & logistique : Manuel Goepfert

Contact : metmap@orbifly.com




SOURCES & CREDITS :

   NOAA